Hopewell, New Jersey
Current Conditions -  °F | °C
As of 10:53 PM on Tuesday 21 Oct 2014 (Local Time) from KTTN Reporting Station
Overcast Overcast  
Wind Chill: 56°   Ceiling: 8000
Heat Index: 56°   Visibility: 10mi
Dew Point: 48°   Wind: 5mph
Humidity: 75%   Direction: 10°N
Pressure: 29.89"   Gusts: NA
Location:  40.39°N, 74.76°W
Report Text: KTTN 220253Z AUTO 01004KT 10SM OVC080 13/09 A2989 RMK AO2 SLP116 T01330089 51013
Loading
Personal Weather Stations






























Interactive Weather Map
Tropical Storm Tracking
New forecast layout! Learn more

10-Day Weather Forecast

Advertisements
Track Severe Weather on mobile